createdAt,value
2018-03-21T00:01:01.533Z,3.19
2018-03-21T00:03:33.024Z,3.18
2018-03-21T00:06:04.842Z,3.20
2018-03-21T00:08:35.989Z,3.26
2018-03-21T00:11:05.821Z,3.37
2018-03-21T00:13:35.200Z,3.47
2018-03-21T00:16:04.382Z,3.42
2018-03-21T00:18:35.042Z,3.45
2018-03-21T00:21:04.031Z,3.59
2018-03-21T00:26:16.249Z,3.72
2018-03-21T00:28:45.174Z,3.88
2018-03-21T00:31:14.141Z,4.04
2018-03-21T00:33:44.112Z,4.00
2018-03-21T00:36:13.204Z,3.93
2018-03-21T00:38:42.173Z,3.96
2018-03-21T00:43:45.112Z,4.05
2018-03-21T00:46:14.134Z,4.00
2018-03-21T00:48:43.134Z,3.99
2018-03-21T00:51:13.004Z,4.01
2018-03-21T00:53:42.036Z,3.94
2018-03-21T00:56:11.186Z,3.94
2018-03-21T00:58:41.010Z,3.91
2018-03-21T01:01:10.900Z,3.87
2018-03-21T01:03:40.054Z,3.93
2018-03-21T01:06:10.926Z,3.98
2018-03-21T01:08:40.199Z,4.02
2018-03-21T01:11:09.148Z,4.03
2018-03-21T01:13:39.052Z,4.02
2018-03-21T01:16:09.893Z,4.01
2018-03-21T01:18:38.883Z,4.09
2018-03-21T01:21:08.028Z,4.18
2018-03-21T01:23:37.391Z,4.17
2018-03-21T01:26:06.388Z,4.25
2018-03-21T01:28:40.845Z,4.30
2018-03-21T01:31:11.035Z,4.35
2018-03-21T01:33:40.015Z,4.37
2018-03-21T01:36:09.999Z,4.39
2018-03-21T01:38:40.642Z,4.45
2018-03-21T01:41:10.566Z,4.49
2018-03-21T01:43:39.481Z,4.53
2018-03-21T01:46:08.558Z,4.48
2018-03-21T01:48:40.551Z,4.59
2018-03-21T01:51:10.184Z,4.64
2018-03-21T01:53:39.094Z,4.66
2018-03-21T01:56:08.130Z,4.71
2018-03-21T01:58:38.263Z,4.73
2018-03-21T02:01:08.862Z,4.74
2018-03-21T02:03:37.984Z,4.70
2018-03-21T02:06:07.793Z,4.76
2018-03-21T02:08:36.990Z,4.77
2018-03-21T02:11:06.090Z,4.69
2018-03-21T02:13:35.183Z,4.69
2018-03-21T02:16:05.110Z,4.58
2018-03-21T02:18:34.044Z,4.49
2018-03-21T02:21:03.020Z,4.46
2018-03-21T02:23:33.827Z,4.46
2018-03-21T02:26:02.799Z,4.43
2018-03-21T02:28:31.948Z,4.46
2018-03-21T02:31:01.119Z,4.42
2018-03-21T02:33:30.308Z,4.45
2018-03-21T02:35:59.567Z,4.39
2018-03-21T02:38:29.528Z,4.34
2018-03-21T02:40:58.621Z,4.33
2018-03-21T02:43:28.316Z,4.26
2018-03-21T02:45:57.329Z,4.19
2018-03-21T02:48:26.423Z,4.24
2018-03-21T02:50:55.528Z,4.31
2018-03-21T02:53:31.252Z,4.32
2018-03-21T02:56:00.526Z,4.33
2018-03-21T02:58:29.566Z,4.37
2018-03-21T03:00:59.544Z,4.54
2018-03-21T03:03:28.784Z,4.57
2018-03-21T03:05:57.871Z,4.56
2018-03-21T03:08:28.559Z,4.53
2018-03-21T03:10:57.670Z,4.62
2018-03-21T03:13:26.702Z,4.66
2018-03-21T03:15:57.224Z,4.68
2018-03-21T03:18:28.784Z,4.67
2018-03-21T03:20:59.260Z,4.67
2018-03-21T03:23:29.709Z,4.65
2018-03-21T03:26:02.693Z,4.60
2018-03-21T03:28:32.897Z,4.47
2018-03-21T03:31:01.949Z,4.39
2018-03-21T03:33:31.339Z,4.35
2018-03-21T03:36:00.354Z,4.34
2018-03-21T03:38:30.318Z,4.28
2018-03-21T03:40:59.435Z,4.28
2018-03-21T03:43:28.528Z,4.28
2018-03-21T03:45:57.750Z,4.33
2018-03-21T03:48:27.872Z,4.43
2018-03-21T03:50:56.964Z,4.43
2018-03-21T03:53:26.281Z,4.41
2018-03-21T03:55:55.620Z,4.36
2018-03-21T03:58:27.431Z,4.19
2018-03-21T04:00:56.678Z,4.12
2018-03-21T04:03:26.244Z,4.19
2018-03-21T04:05:55.566Z,4.10
2018-03-21T04:08:24.731Z,4.18
2018-03-21T04:10:53.928Z,4.21
2018-03-21T04:13:23.650Z,4.23
2018-03-21T04:15:52.620Z,4.21
2018-03-21T04:18:21.791Z,4.31
2018-03-21T04:20:50.840Z,4.32
2018-03-21T04:23:22.894Z,4.36
2018-03-21T04:25:51.990Z,4.43
2018-03-21T04:28:22.163Z,4.45
2018-03-21T04:30:52.239Z,4.45
2018-03-21T04:33:21.389Z,4.46
2018-03-21T04:35:50.324Z,4.46
2018-03-21T04:38:21.816Z,4.49
2018-03-21T04:40:50.884Z,4.54
2018-03-21T04:43:19.994Z,4.53
2018-03-21T04:45:49.154Z,4.54
2018-03-21T04:48:19.925Z,4.61
2018-03-21T04:50:50.758Z,4.65
2018-03-21T04:53:19.799Z,4.83
2018-03-21T04:55:48.842Z,4.84
2018-03-21T04:58:18.282Z,4.92
2018-03-21T05:00:47.314Z,4.98
2018-03-21T05:03:16.507Z,5.10
2018-03-21T05:05:46.404Z,5.25
2018-03-21T05:08:16.198Z,5.36
2018-03-21T05:10:46.070Z,5.57
2018-03-21T05:13:15.368Z,5.78
2018-03-21T05:15:44.442Z,5.81
2018-03-21T05:18:13.570Z,5.99
2018-03-21T05:20:44.524Z,6.19
2018-03-21T05:23:13.758Z,6.27
2018-03-21T05:25:43.640Z,6.41
2018-03-21T05:28:12.724Z,6.17
2018-03-21T05:30:41.915Z,5.99
2018-03-21T05:33:11.100Z,5.86
2018-03-21T05:35:40.212Z,5.83
2018-03-21T05:38:09.213Z,5.83
2018-03-21T05:40:39.070Z,5.83
2018-03-21T05:43:09.009Z,5.75
2018-03-21T05:45:40.137Z,5.83
2018-03-21T05:48:11.180Z,6.03
2018-03-21T05:50:41.182Z,6.21
2018-03-21T05:53:10.124Z,6.11
2018-03-21T05:55:44.282Z,6.19
2018-03-21T05:58:13.180Z,6.17
2018-03-21T06:00:42.436Z,6.26
2018-03-21T06:05:47.538Z,6.86
2018-03-21T06:08:18.213Z,6.69
2018-03-21T06:10:49.963Z,6.60
2018-03-21T06:13:19.091Z,6.68
2018-03-21T06:15:49.260Z,6.62
2018-03-21T06:18:20.713Z,6.51
2018-03-21T06:20:50.101Z,6.30
2018-03-21T06:23:19.290Z,6.14
2018-03-21T06:25:49.002Z,6.23
2018-03-21T06:28:18.167Z,5.98
2018-03-21T06:30:47.157Z,5.93
2018-03-21T06:35:51.112Z,5.93
2018-03-21T06:38:20.076Z,5.81
2018-03-21T06:40:50.087Z,5.89
2018-03-21T06:43:19.130Z,6.03
2018-03-21T06:45:48.426Z,6.22
2018-03-21T06:48:18.247Z,5.92
2018-03-21T06:50:48.099Z,5.85
2018-03-21T06:53:17.294Z,5.81
2018-03-21T06:58:23.344Z,5.80
2018-03-21T07:00:52.435Z,5.70
2018-03-21T07:03:22.282Z,5.63
2018-03-21T07:05:51.416Z,5.68
2018-03-21T07:08:27.120Z,5.85
2018-03-21T07:10:56.902Z,5.42
2018-03-21T07:13:26.039Z,5.47
2018-03-21T07:16:07.011Z,5.34
2018-03-21T07:18:35.860Z,5.34
2018-03-21T07:21:04.998Z,5.55
2018-03-21T07:23:35.845Z,5.31
2018-03-21T07:26:04.943Z,5.44
2018-03-21T07:28:35.559Z,5.18
2018-03-21T07:31:04.634Z,5.18
2018-03-21T07:33:33.758Z,5.13
2018-03-21T07:36:02.858Z,5.29
2018-03-21T07:38:34.995Z,5.22
2018-03-21T07:41:03.910Z,5.13
2018-03-21T07:43:32.902Z,5.02
2018-03-21T07:46:05.197Z,5.00
2018-03-21T07:48:34.176Z,4.79
2018-03-21T07:51:03.354Z,4.71
2018-03-21T07:53:33.895Z,4.68
2018-03-21T07:56:02.862Z,4.78
2018-03-21T07:58:31.784Z,4.73
2018-03-21T08:01:00.879Z,4.73
2018-03-21T08:03:29.734Z,4.82
2018-03-21T08:05:58.704Z,4.98
2018-03-21T08:11:04.336Z,5.02
2018-03-21T08:13:33.941Z,5.06
2018-03-21T08:16:03.069Z,5.10
2018-03-21T08:18:32.069Z,4.94
2018-03-21T08:21:01.130Z,4.93
2018-03-21T08:23:32.674Z,4.75
2018-03-21T08:26:02.818Z,4.79
2018-03-21T08:28:31.898Z,4.57
2018-03-21T08:31:01.197Z,4.59
2018-03-21T08:33:30.194Z,4.65
2018-03-21T08:35:59.343Z,4.91
2018-03-21T08:38:29.303Z,4.90
2018-03-21T08:40:59.089Z,4.71
2018-03-21T08:43:28.849Z,4.84
2018-03-21T08:45:58.674Z,4.64
2018-03-21T08:48:28.562Z,4.84
2018-03-21T08:50:57.488Z,4.70
2018-03-21T08:53:28.998Z,5.02
2018-03-21T08:55:57.995Z,4.92
2018-03-21T08:58:26.946Z,5.11
2018-03-21T09:00:56.777Z,5.25
2018-03-21T09:03:25.883Z,5.54
2018-03-21T09:05:54.945Z,5.10
2018-03-21T09:08:24.806Z,5.23
2018-03-21T09:10:53.892Z,5.49
2018-03-21T09:13:22.883Z,5.27
2018-03-21T09:15:51.981Z,5.26
2018-03-21T09:18:24.445Z,5.22
2018-03-21T09:20:53.535Z,5.22
2018-03-21T09:23:23.321Z,5.16
2018-03-21T09:25:53.346Z,5.00
2018-03-21T09:28:25.507Z,4.71
2018-03-21T09:30:54.604Z,4.91
2018-03-21T09:33:23.698Z,4.86
2018-03-21T09:35:54.360Z,4.82
2018-03-21T09:38:23.738Z,4.92
2018-03-21T09:40:53.123Z,4.73
2018-03-21T09:43:23.043Z,4.60
2018-03-21T09:45:54.721Z,4.73
2018-03-21T09:48:24.593Z,4.68
2018-03-21T09:50:57.580Z,4.57
2018-03-21T09:53:27.427Z,4.45
2018-03-21T09:55:56.422Z,4.55
2018-03-21T09:58:25.369Z,4.66
2018-03-21T10:00:56.161Z,4.85
2018-03-21T10:03:24.977Z,5.09
2018-03-21T10:05:54.806Z,5.14
2018-03-21T10:08:24.638Z,4.90
2018-03-21T10:10:53.628Z,5.02
2018-03-21T10:13:22.655Z,5.04
2018-03-21T10:15:51.850Z,4.99
2018-03-21T10:18:22.171Z,4.88
2018-03-21T10:20:51.070Z,4.79
2018-03-21T10:23:20.990Z,4.67
2018-03-21T10:25:52.845Z,4.79
2018-03-21T10:30:56.326Z,4.83
2018-03-21T10:33:25.630Z,5.01
2018-03-21T10:35:57.469Z,5.03
2018-03-21T10:38:27.093Z,5.20
2018-03-21T10:40:57.014Z,5.21
2018-03-21T10:43:26.112Z,5.29
2018-03-21T10:45:55.110Z,5.34
2018-03-21T10:48:23.981Z,5.38
2018-03-21T10:50:53.193Z,5.52
2018-03-21T10:53:24.876Z,5.31
2018-03-21T10:55:54.764Z,5.03
2018-03-21T10:58:23.758Z,5.04
2018-03-21T11:00:52.751Z,4.67
2018-03-21T11:03:23.422Z,4.71
2018-03-21T11:05:52.442Z,4.73
2018-03-21T11:08:21.434Z,4.76
2018-03-21T11:10:50.568Z,4.76
2018-03-21T11:13:22.616Z,4.86
2018-03-21T11:15:53.274Z,4.94
2018-03-21T11:18:22.363Z,4.98
2018-03-21T11:20:51.565Z,4.86
2018-03-21T11:23:21.713Z,4.87
2018-03-21T11:25:51.386Z,4.78
2018-03-21T11:28:20.582Z,4.89
2018-03-21T11:30:50.452Z,4.87
2018-03-21T11:33:19.495Z,5.13
2018-03-21T11:35:49.516Z,4.94
2018-03-21T11:38:22.707Z,4.97
2018-03-21T11:40:52.650Z,5.12
2018-03-21T11:43:22.329Z,4.92
2018-03-21T11:45:52.201Z,4.89
2018-03-21T11:48:21.574Z,4.94
2018-03-21T11:50:50.569Z,4.79
2018-03-21T11:55:53.859Z,4.77
2018-03-21T11:58:22.788Z,4.82
2018-03-21T12:03:27.292Z,4.87
2018-03-21T12:05:56.734Z,4.98
2018-03-21T12:08:25.782Z,4.95
2018-03-21T12:10:58.464Z,5.18
2018-03-21T12:13:27.488Z,5.21
2018-03-21T12:15:56.380Z,5.22
2018-03-21T12:18:27.091Z,5.25
2018-03-21T12:20:56.082Z,5.18
2018-03-21T12:23:25.076Z,5.11
2018-03-21T12:25:54.157Z,5.01
2018-03-21T12:28:23.173Z,5.06
2018-03-21T12:30:52.257Z,5.15
2018-03-21T12:33:21.390Z,5.21
2018-03-21T12:35:50.302Z,5.17
2018-03-21T12:38:19.303Z,5.19
2018-03-21T12:40:48.544Z,5.16
2018-03-21T12:43:17.435Z,5.23
2018-03-21T12:45:49.086Z,5.11
2018-03-21T12:48:19.867Z,5.12
2018-03-21T12:50:49.692Z,5.07
2018-03-21T12:53:18.632Z,5.05
2018-03-21T12:55:47.896Z,4.99
2018-03-21T12:58:16.926Z,5.02
2018-03-21T13:00:45.811Z,4.92
2018-03-21T13:03:20.460Z,4.90
2018-03-21T13:05:49.546Z,4.83
2018-03-21T13:08:19.284Z,4.80
2018-03-21T13:10:48.381Z,4.75
2018-03-21T13:13:18.251Z,4.79
2018-03-21T13:15:47.914Z,4.63
2018-03-21T13:18:18.738Z,4.66
2018-03-21T13:20:48.069Z,4.58
2018-03-21T13:23:17.155Z,4.48
2018-03-21T13:25:47.128Z,4.57
2018-03-21T13:28:16.180Z,4.60
2018-03-21T13:30:45.322Z,4.67
2018-03-21T13:33:14.612Z,4.65
2018-03-21T13:35:43.749Z,4.67
2018-03-21T13:38:12.821Z,4.59
2018-03-21T13:40:41.905Z,4.58
2018-03-21T13:43:11.100Z,4.76
2018-03-21T13:45:40.090Z,4.70
2018-03-21T13:48:13.909Z,4.63
2018-03-21T13:50:42.836Z,4.66
2018-03-21T13:53:12.336Z,4.59
2018-03-21T13:55:42.948Z,4.65
2018-03-21T13:58:12.033Z,4.53
2018-03-21T14:00:42.722Z,4.65
2018-03-21T14:03:12.400Z,4.62
2018-03-21T14:05:42.347Z,4.63
2018-03-21T14:08:11.400Z,4.60
2018-03-21T14:10:44.844Z,4.53
2018-03-21T14:13:14.012Z,4.55
2018-03-21T14:15:43.325Z,4.57
2018-03-21T14:18:14.348Z,4.65
2018-03-21T14:20:43.382Z,4.60
2018-03-21T14:23:12.488Z,4.64
2018-03-21T14:25:41.652Z,4.58
2018-03-21T14:28:11.743Z,4.68
2018-03-21T14:30:41.593Z,4.51
2018-03-21T14:33:11.613Z,4.58
2018-03-21T14:35:41.587Z,4.59
2018-03-21T14:38:10.693Z,4.59
2018-03-21T14:40:40.541Z,4.53
2018-03-21T14:43:09.613Z,4.60
2018-03-21T14:45:39.579Z,4.67
2018-03-21T14:50:46.303Z,4.70
2018-03-21T14:53:16.913Z,4.69
2018-03-21T14:55:46.134Z,4.77
2018-03-21T15:00:49.964Z,4.78
2018-03-21T15:03:19.774Z,4.73
2018-03-21T15:05:49.833Z,4.68
2018-03-21T15:08:18.919Z,4.69
2018-03-21T15:10:47.879Z,4.64
2018-03-21T15:13:16.984Z,4.70
2018-03-21T15:15:46.076Z,4.73
2018-03-21T15:18:16.093Z,4.82
2018-03-21T15:20:46.796Z,4.87
2018-03-21T15:23:15.825Z,4.87
2018-03-21T15:25:44.916Z,4.85
2018-03-21T15:28:14.016Z,4.88
2018-03-21T15:30:43.023Z,4.83
2018-03-21T15:33:12.820Z,4.83
2018-03-21T15:35:42.520Z,4.82
2018-03-21T15:38:11.663Z,4.81
2018-03-21T15:40:41.645Z,4.76
2018-03-21T15:43:12.927Z,4.83
2018-03-21T15:45:42.399Z,4.82
2018-03-21T15:48:11.830Z,4.80
2018-03-21T15:50:40.794Z,4.86
2018-03-21T15:53:09.785Z,4.93
2018-03-21T15:55:40.325Z,4.94
2018-03-21T15:58:10.894Z,4.97
2018-03-21T16:00:39.942Z,4.95
2018-03-21T16:03:08.942Z,5.00
2018-03-21T16:05:39.607Z,4.95
2018-03-21T16:08:08.671Z,4.98
2018-03-21T16:10:38.124Z,4.98
2018-03-21T16:13:08.037Z,4.88
2018-03-21T16:15:39.549Z,4.95
2018-03-21T16:18:08.503Z,4.97
2018-03-21T16:20:37.532Z,4.95
2018-03-21T16:23:06.611Z,4.95
2018-03-21T16:25:36.541Z,4.96
2018-03-21T16:28:06.456Z,4.95
2018-03-21T16:30:35.461Z,4.93
2018-03-21T16:33:06.294Z,4.99
2018-03-21T16:35:36.080Z,5.00
2018-03-21T16:38:05.502Z,5.00
2018-03-21T16:40:41.976Z,4.97
2018-03-21T16:43:11.005Z,5.05
2018-03-21T16:45:40.117Z,5.09
2018-03-21T16:50:44.162Z,5.17
2018-03-21T16:53:13.004Z,5.27
2018-03-21T16:55:42.355Z,5.18
2018-03-21T16:58:12.379Z,5.18
2018-03-21T17:00:42.396Z,5.22
2018-03-21T17:03:11.711Z,5.34
2018-03-21T17:05:40.823Z,5.33
2018-03-21T17:08:09.820Z,5.43
2018-03-21T17:15:48.770Z,5.50
2018-03-21T17:18:17.738Z,5.50
2018-03-21T17:20:47.051Z,5.43
2018-03-21T17:23:16.889Z,5.44
2018-03-21T17:25:46.787Z,5.44
2018-03-21T17:28:22.332Z,5.47
2018-03-21T17:30:51.317Z,5.54
2018-03-21T17:33:20.466Z,5.55
2018-03-21T17:35:50.388Z,5.57
2018-03-21T17:38:20.358Z,5.57
2018-03-21T17:40:49.355Z,5.54
2018-03-21T17:43:18.458Z,5.47
2018-03-21T17:45:47.581Z,5.41
2018-03-21T17:48:16.882Z,5.47
2018-03-21T17:50:45.886Z,5.49
2018-03-21T17:53:15.192Z,5.36
2018-03-21T17:55:44.261Z,5.28
2018-03-21T17:58:15.251Z,5.29
2018-03-21T18:00:44.275Z,5.27
2018-03-21T18:03:13.266Z,5.21
2018-03-21T18:08:19.275Z,5.21
2018-03-21T18:10:48.450Z,5.12
2018-03-21T18:13:18.219Z,5.11
2018-03-21T18:15:47.359Z,5.06
2018-03-21T18:18:17.313Z,5.01
2018-03-21T18:20:46.529Z,5.00
2018-03-21T18:23:16.274Z,4.96
2018-03-21T18:25:46.406Z,4.91
2018-03-21T18:28:17.335Z,4.81
2018-03-21T18:30:46.438Z,4.62
2018-03-21T18:33:15.464Z,4.57
2018-03-21T18:35:46.673Z,4.35
2018-03-21T18:38:16.078Z,4.18
2018-03-21T18:40:46.148Z,3.94
2018-03-21T18:43:15.130Z,3.73
2018-03-21T18:45:45.682Z,3.65
2018-03-21T18:48:14.592Z,3.37
2018-03-21T18:50:49.240Z,3.28
2018-03-21T18:53:18.235Z,3.07
2018-03-21T18:55:48.561Z,3.02
2018-03-21T18:58:17.552Z,2.89
2018-03-21T19:00:46.488Z,2.83
2018-03-21T19:03:16.018Z,2.78
2018-03-21T19:05:49.261Z,2.83
2018-03-21T19:08:18.289Z,2.76
2018-03-21T19:10:47.344Z,2.79
2018-03-21T19:13:20.148Z,2.75
2018-03-21T19:15:45.835Z,2.70
2018-03-21T19:18:15.860Z,2.59
2018-03-21T19:20:44.840Z,2.52
2018-03-21T19:23:14.046Z,2.59
2018-03-21T19:25:43.006Z,2.50
2018-03-21T19:28:13.985Z,2.50
2018-03-21T19:30:43.027Z,2.48
2018-03-21T19:33:11.967Z,2.43
2018-03-21T19:35:41.120Z,2.38
2018-03-21T19:38:10.104Z,2.41
2018-03-21T19:40:39.967Z,2.41
2018-03-21T19:43:09.922Z,2.41
2018-03-21T19:45:38.954Z,2.38
2018-03-21T19:48:08.842Z,2.41
2018-03-21T19:50:38.915Z,2.40
2018-03-21T19:53:08.012Z,2.39
2018-03-21T19:55:37.108Z,2.49
2018-03-21T19:58:07.034Z,2.49
2018-03-21T20:00:36.016Z,2.41
2018-03-21T20:03:05.012Z,2.33
2018-03-21T20:05:35.069Z,2.31
2018-03-21T20:08:04.026Z,2.25
2018-03-21T20:10:33.937Z,2.18
2018-03-21T20:13:03.731Z,2.10
2018-03-21T20:15:32.656Z,2.06
2018-03-21T20:18:02.559Z,2.13
2018-03-21T20:20:31.673Z,2.20
2018-03-21T20:23:02.566Z,2.14
2018-03-21T20:25:31.686Z,2.18
2018-03-21T20:28:00.890Z,2.06
2018-03-21T20:30:29.944Z,1.98
2018-03-21T20:32:59.195Z,1.88
2018-03-21T20:35:28.538Z,1.90
2018-03-21T20:37:57.523Z,1.92
2018-03-21T20:40:26.444Z,1.85
2018-03-21T20:42:58.544Z,1.71
2018-03-21T20:45:27.543Z,1.63
2018-03-21T20:47:56.634Z,1.66
2018-03-21T20:50:25.844Z,1.57
2018-03-21T20:52:54.794Z,1.55
2018-03-21T20:55:24.555Z,1.51
2018-03-21T20:57:54.418Z,1.54
2018-03-21T21:00:24.009Z,1.45
2018-03-21T21:02:53.079Z,1.48
2018-03-21T21:05:24.577Z,1.45
2018-03-21T21:07:53.557Z,1.45
2018-03-21T21:10:22.707Z,1.48
2018-03-21T21:12:52.573Z,1.51
2018-03-21T21:15:21.764Z,1.63
2018-03-21T21:17:50.858Z,1.57
2018-03-21T21:20:19.843Z,1.46
2018-03-21T21:22:48.785Z,1.49
2018-03-21T21:25:18.681Z,1.50
2018-03-21T21:30:22.504Z,1.63
2018-03-21T21:32:52.366Z,1.47
2018-03-21T21:35:23.404Z,1.58
2018-03-21T21:37:52.511Z,1.66
2018-03-21T21:40:21.683Z,1.63
2018-03-21T21:42:50.600Z,1.63
2018-03-21T21:45:20.615Z,1.70
2018-03-21T21:47:49.647Z,1.73
2018-03-21T21:50:18.974Z,1.63
2018-03-21T21:52:48.815Z,1.65
2018-03-21T21:55:17.920Z,1.74
2018-03-21T21:57:48.516Z,1.86
2018-03-21T22:00:17.543Z,1.87
2018-03-21T22:02:46.540Z,1.82
2018-03-21T22:05:15.633Z,1.76
2018-03-21T22:07:45.589Z,1.72
2018-03-21T22:10:15.567Z,1.54
2018-03-21T22:12:45.547Z,1.46
2018-03-21T22:15:14.529Z,1.44
2018-03-21T22:17:43.604Z,1.52
2018-03-21T22:20:12.656Z,1.47
2018-03-21T22:22:41.853Z,1.48
2018-03-21T22:25:11.795Z,1.47
2018-03-21T22:27:40.863Z,1.48
2018-03-21T22:30:09.972Z,1.34
2018-03-21T22:32:38.942Z,1.30
2018-03-21T22:35:08.171Z,1.39
2018-03-21T22:37:37.056Z,1.36
2018-03-21T22:40:06.669Z,1.32
2018-03-21T22:42:38.964Z,1.34
2018-03-21T22:45:08.632Z,1.29
2018-03-21T22:47:38.269Z,1.25
2018-03-21T22:50:07.449Z,1.27
2018-03-21T22:52:36.547Z,1.24
2018-03-21T22:55:06.152Z,1.35
2018-03-21T22:57:36.024Z,1.31
2018-03-21T23:00:05.157Z,1.38
2018-03-21T23:02:35.141Z,1.38
2018-03-21T23:05:04.780Z,1.35
2018-03-21T23:07:34.855Z,1.38
2018-03-21T23:10:04.041Z,1.34
2018-03-21T23:12:33.156Z,1.42
2018-03-21T23:15:04.561Z,1.40
2018-03-21T23:17:33.656Z,1.37
2018-03-21T23:20:02.650Z,1.46
2018-03-21T23:22:32.533Z,1.49
2018-03-21T23:25:02.417Z,1.35
2018-03-21T23:27:31.415Z,1.27
2018-03-21T23:30:00.305Z,1.29
2018-03-21T23:32:32.979Z,1.28
2018-03-21T23:35:01.925Z,1.34
2018-03-21T23:37:38.363Z,1.31
2018-03-21T23:40:07.434Z,1.31
2018-03-21T23:42:36.332Z,1.24
2018-03-21T23:45:11.383Z,1.24
2018-03-21T23:47:40.502Z,1.24
2018-03-21T23:50:09.521Z,1.22
2018-03-21T23:52:38.694Z,1.18
2018-03-21T23:55:09.133Z,1.14
2018-03-21T23:57:39.552Z,1.09
